Delhi, Ohio
Current Conditions -  °F | °C
As of 4:56 AM on Friday 19 Dec 2014 (Local Time) from KI69 Reporting Station
Scattered Clouds Scattered Clouds  
Wind Chill: 27°   Ceiling: Unl
Heat Index: 27°   Visibility: 7mi
Dew Point: 25°   Wind: 3mph
Humidity: 93%   Direction: 300°WNW
Pressure: 30.23"   Gusts: NA
Location:  39.1091°N, 84.6112°W
Report Text: KI69 190956Z AUTO 30003KT 7SM SCT018 M03/M04 A3023 RMK AO1
Loading
Personal Weather Stations






























Interactive Weather Map New forecast layout! Learn more

10-Day Weather Forecast

Advertisements
Track Severe Weather on mobile